sensor_id;sensor_type;location;lat;lon;timestamp;P1;durP1;ratioP1;P2;durP2;ratioP2
57303;SDS011;43150;50.986;18.208;2023-03-14T00:01:54;7.40;;;4.30;;
57303;SDS011;43150;50.986;18.208;2023-03-14T00:04:20;7.10;;;4.00;;
57303;SDS011;43150;50.986;18.208;2023-03-14T00:06:46;6.80;;;3.10;;
57303;SDS011;43150;50.986;18.208;2023-03-14T00:09:12;6.60;;;4.20;;
57303;SDS011;43150;50.986;18.208;2023-03-14T00:11:38;6.20;;;3.70;;
57303;SDS011;43150;50.986;18.208;2023-03-14T00:14:03;4.90;;;2.60;;
57303;SDS011;43150;50.986;18.208;2023-03-14T00:16:29;5.20;;;3.00;;
57303;SDS011;43150;50.986;18.208;2023-03-14T00:18:54;7.80;;;4.30;;
57303;SDS011;43150;50.986;18.208;2023-03-14T00:21:20;6.20;;;3.10;;
57303;SDS011;43150;50.986;18.208;2023-03-14T00:23:48;5.50;;;3.60;;
57303;SDS011;43150;50.986;18.208;2023-03-14T00:26:14;6.00;;;3.70;;
57303;SDS011;43150;50.986;18.208;2023-03-14T00:28:40;5.20;;;3.00;;
57303;SDS011;43150;50.986;18.208;2023-03-14T00:31:06;6.10;;;4.10;;
57303;SDS011;43150;50.986;18.208;2023-03-14T00:33:33;7.40;;;3.90;;
57303;SDS011;43150;50.986;18.208;2023-03-14T00:36:11;5.20;;;3.80;;
57303;SDS011;43150;50.986;18.208;2023-03-14T00:38:38;6.60;;;4.20;;
57303;SDS011;43150;50.986;18.208;2023-03-14T00:41:05;7.20;;;4.00;;
57303;SDS011;43150;50.986;18.208;2023-03-14T00:43:30;6.10;;;2.60;;
57303;SDS011;43150;50.986;18.208;2023-03-14T00:45:56;7.20;;;3.80;;
57303;SDS011;43150;50.986;18.208;2023-03-14T00:48:22;6.90;;;2.70;;
57303;SDS011;43150;50.986;18.208;2023-03-14T00:50:48;5.60;;;3.70;;
57303;SDS011;43150;50.986;18.208;2023-03-14T00:53:14;6.20;;;3.30;;
57303;SDS011;43150;50.986;18.208;2023-03-14T00:55:40;7.90;;;2.90;;
57303;SDS011;43150;50.986;18.208;2023-03-14T00:58:05;4.50;;;2.90;;
57303;SDS011;43150;50.986;18.208;2023-03-14T01:00:31;7.00;;;3.80;;
57303;SDS011;43150;50.986;18.208;2023-03-14T01:02:57;7.00;;;3.90;;
57303;SDS011;43150;50.986;18.208;2023-03-14T01:05:23;10.70;;;3.60;;
57303;SDS011;43150;50.986;18.208;2023-03-14T01:07:48;6.10;;;3.40;;
57303;SDS011;43150;50.986;18.208;2023-03-14T01:10:14;5.20;;;3.60;;
57303;SDS011;43150;50.986;18.208;2023-03-14T01:12:40;7.60;;;4.10;;
57303;SDS011;43150;50.986;18.208;2023-03-14T01:15:06;7.40;;;3.90;;
57303;SDS011;43150;50.986;18.208;2023-03-14T01:17:31;7.10;;;3.70;;
57303;SDS011;43150;50.986;18.208;2023-03-14T01:19:57;3.80;;;3.00;;
57303;SDS011;43150;50.986;18.208;2023-03-14T01:22:23;6.60;;;2.70;;
57303;SDS011;43150;50.986;18.208;2023-03-14T01:24:48;6.50;;;4.40;;
57303;SDS011;43150;50.986;18.208;2023-03-14T01:27:14;10.20;;;6.60;;
57303;SDS011;43150;50.986;18.208;2023-03-14T01:29:39;11.80;;;7.60;;
57303;SDS011;43150;50.986;18.208;2023-03-14T01:32:05;10.10;;;6.60;;
57303;SDS011;43150;50.986;18.208;2023-03-14T01:34:36;12.60;;;7.30;;
57303;SDS011;43150;50.986;18.208;2023-03-14T01:37:04;10.00;;;6.20;;
57303;SDS011;43150;50.986;18.208;2023-03-14T01:39:33;10.00;;;5.80;;
57303;SDS011;43150;50.986;18.208;2023-03-14T01:42:00;7.80;;;5.30;;
57303;SDS011;43150;50.986;18.208;2023-03-14T01:44:25;8.20;;;4.20;;
57303;SDS011;43150;50.986;18.208;2023-03-14T01:46:51;11.70;;;3.70;;
57303;SDS011;43150;50.986;18.208;2023-03-14T01:49:28;7.70;;;4.10;;
57303;SDS011;43150;50.986;18.208;2023-03-14T01:52:39;5.80;;;3.80;;
57303;SDS011;43150;50.986;18.208;2023-03-14T01:54:47;5.20;;;3.70;;
57303;SDS011;43150;50.986;18.208;2023-03-14T01:57:20;7.70;;;3.30;;
57303;SDS011;43150;50.986;18.208;2023-03-14T01:59:49;6.50;;;3.40;;
57303;SDS011;43150;50.986;18.208;2023-03-14T02:02:17;5.30;;;2.60;;
57303;SDS011;43150;50.986;18.208;2023-03-14T02:04:42;5.90;;;3.40;;
57303;SDS011;43150;50.986;18.208;2023-03-14T02:07:13;6.80;;;3.40;;
57303;SDS011;43150;50.986;18.208;2023-03-14T02:09:40;4.40;;;2.80;;
57303;SDS011;43150;50.986;18.208;2023-03-14T02:12:11;6.90;;;4.00;;
57303;SDS011;43150;50.986;18.208;2023-03-14T02:14:37;5.80;;;4.00;;
57303;SDS011;43150;50.986;18.208;2023-03-14T02:17:05;6.70;;;4.30;;
57303;SDS011;43150;50.986;18.208;2023-03-14T02:27:04;24.70;;;13.10;;
57303;SDS011;43150;50.986;18.208;2023-03-14T02:29:30;17.10;;;13.60;;
57303;SDS011;43150;50.986;18.208;2023-03-14T02:31:56;13.70;;;5.90;;
57303;SDS011;43150;50.986;18.208;2023-03-14T02:34:22;9.00;;;5.30;;
57303;SDS011;43150;50.986;18.208;2023-03-14T02:36:48;8.70;;;5.40;;
57303;SDS011;43150;50.986;18.208;2023-03-14T02:39:15;6.70;;;3.40;;
57303;SDS011;43150;50.986;18.208;2023-03-14T02:41:48;6.10;;;4.10;;
57303;SDS011;43150;50.986;18.208;2023-03-14T02:44:14;5.00;;;3.60;;
57303;SDS011;43150;50.986;18.208;2023-03-14T02:46:40;7.40;;;3.90;;
57303;SDS011;43150;50.986;18.208;2023-03-14T02:49:12;3.90;;;2.90;;
57303;SDS011;43150;50.986;18.208;2023-03-14T02:51:39;5.00;;;3.00;;
57303;SDS011;43150;50.986;18.208;2023-03-14T02:54:05;5.70;;;2.70;;
57303;SDS011;43150;50.986;18.208;2023-03-14T02:56:35;6.80;;;3.80;;
57303;SDS011;43150;50.986;18.208;2023-03-14T02:59:03;5.50;;;3.60;;
57303;SDS011;43150;50.986;18.208;2023-03-14T03:01:28;8.60;;;4.90;;
57303;SDS011;43150;50.986;18.208;2023-03-14T03:03:54;5.30;;;3.30;;
57303;SDS011;43150;50.986;18.208;2023-03-14T03:06:21;7.10;;;4.30;;
57303;SDS011;43150;50.986;18.208;2023-03-14T03:08:49;7.20;;;3.00;;
57303;SDS011;43150;50.986;18.208;2023-03-14T03:11:15;6.30;;;3.40;;
57303;SDS011;43150;50.986;18.208;2023-03-14T03:13:40;7.00;;;4.00;;
57303;SDS011;43150;50.986;18.208;2023-03-14T03:16:06;5.80;;;3.10;;
57303;SDS011;43150;50.986;18.208;2023-03-14T03:18:32;5.40;;;3.50;;
57303;SDS011;43150;50.986;18.208;2023-03-14T03:21:01;6.10;;;3.70;;
57303;SDS011;43150;50.986;18.208;2023-03-14T03:23:27;4.40;;;2.80;;
57303;SDS011;43150;50.986;18.208;2023-03-14T03:25:53;6.60;;;3.30;;
57303;SDS011;43150;50.986;18.208;2023-03-14T03:28:18;4.00;;;2.80;;
57303;SDS011;43150;50.986;18.208;2023-03-14T03:30:44;5.50;;;3.40;;
57303;SDS011;43150;50.986;18.208;2023-03-14T03:33:13;3.80;;;2.60;;
57303;SDS011;43150;50.986;18.208;2023-03-14T03:35:45;5.20;;;2.60;;
57303;SDS011;43150;50.986;18.208;2023-03-14T03:38:11;5.70;;;3.80;;
57303;SDS011;43150;50.986;18.208;2023-03-14T03:40:37;3.60;;;2.30;;
57303;SDS011;43150;50.986;18.208;2023-03-14T03:43:02;5.60;;;3.20;;
57303;SDS011;43150;50.986;18.208;2023-03-14T03:45:29;5.90;;;3.00;;
57303;SDS011;43150;50.986;18.208;2023-03-14T03:47:55;5.00;;;3.10;;
57303;SDS011;43150;50.986;18.208;2023-03-14T03:50:21;6.50;;;3.30;;
57303;SDS011;43150;50.986;18.208;2023-03-14T03:52:46;5.50;;;3.40;;
57303;SDS011;43150;50.986;18.208;2023-03-14T03:55:12;7.60;;;4.40;;
57303;SDS011;43150;50.986;18.208;2023-03-14T03:57:38;7.80;;;4.10;;
57303;SDS011;43150;50.986;18.208;2023-03-14T04:00:04;8.00;;;4.10;;
57303;SDS011;43150;50.986;18.208;2023-03-14T04:02:30;5.90;;;3.00;;
57303;SDS011;43150;50.986;18.208;2023-03-14T04:04:56;5.10;;;2.60;;
57303;SDS011;43150;50.986;18.208;2023-03-14T04:07:22;4.50;;;3.30;;
57303;SDS011;43150;50.986;18.208;2023-03-14T04:09:47;4.80;;;2.70;;
57303;SDS011;43150;50.986;18.208;2023-03-14T04:12:13;4.50;;;2.80;;
57303;SDS011;43150;50.986;18.208;2023-03-14T04:14:38;4.90;;;2.90;;
57303;SDS011;43150;50.986;18.208;2023-03-14T04:17:06;4.60;;;2.70;;
57303;SDS011;43150;50.986;18.208;2023-03-14T04:19:32;4.70;;;2.60;;
57303;SDS011;43150;50.986;18.208;2023-03-14T04:21:58;4.60;;;2.90;;
57303;SDS011;43150;50.986;18.208;2023-03-14T04:24:23;5.80;;;2.90;;
57303;SDS011;43150;50.986;18.208;2023-03-14T04:26:49;3.60;;;2.60;;
57303;SDS011;43150;50.986;18.208;2023-03-14T04:29:15;6.20;;;3.70;;
57303;SDS011;43150;50.986;18.208;2023-03-14T04:31:41;4.60;;;3.00;;
57303;SDS011;43150;50.986;18.208;2023-03-14T04:34:06;4.50;;;3.10;;
57303;SDS011;43150;50.986;18.208;2023-03-14T04:36:32;5.90;;;2.80;;
57303;SDS011;43150;50.986;18.208;2023-03-14T04:38:59;4.00;;;2.80;;
57303;SDS011;43150;50.986;18.208;2023-03-14T04:41:29;6.30;;;2.70;;
57303;SDS011;43150;50.986;18.208;2023-03-14T04:43:55;5.30;;;3.10;;
57303;SDS011;43150;50.986;18.208;2023-03-14T04:46:21;6.00;;;3.40;;
57303;SDS011;43150;50.986;18.208;2023-03-14T04:48:46;6.20;;;2.50;;
57303;SDS011;43150;50.986;18.208;2023-03-14T04:51:12;5.20;;;2.40;;
57303;SDS011;43150;50.986;18.208;2023-03-14T04:53:37;5.60;;;2.70;;
57303;SDS011;43150;50.986;18.208;2023-03-14T04:56:03;7.00;;;3.40;;
57303;SDS011;43150;50.986;18.208;2023-03-14T04:58:30;4.80;;;3.40;;
57303;SDS011;43150;50.986;18.208;2023-03-14T05:01:00;4.20;;;3.20;;
57303;SDS011;43150;50.986;18.208;2023-03-14T05:03:26;4.50;;;2.70;;
57303;SDS011;43150;50.986;18.208;2023-03-14T05:05:51;4.80;;;2.70;;
57303;SDS011;43150;50.986;18.208;2023-03-14T05:08:17;5.10;;;3.40;;
57303;SDS011;43150;50.986;18.208;2023-03-14T05:10:44;6.60;;;3.10;;
57303;SDS011;43150;50.986;18.208;2023-03-14T05:13:10;9.10;;;5.10;;
57303;SDS011;43150;50.986;18.208;2023-03-14T05:15:36;10.00;;;7.20;;
57303;SDS011;43150;50.986;18.208;2023-03-14T05:18:01;7.00;;;4.00;;
57303;SDS011;43150;50.986;18.208;2023-03-14T05:20:27;4.90;;;3.60;;
57303;SDS011;43150;50.986;18.208;2023-03-14T05:22:53;5.70;;;3.40;;
57303;SDS011;43150;50.986;18.208;2023-03-14T05:25:18;6.50;;;3.00;;
57303;SDS011;43150;50.986;18.208;2023-03-14T05:27:44;4.20;;;3.00;;
57303;SDS011;43150;50.986;18.208;2023-03-14T05:30:10;5.20;;;3.40;;
57303;SDS011;43150;50.986;18.208;2023-03-14T05:32:35;5.30;;;2.90;;
57303;SDS011;43150;50.986;18.208;2023-03-14T05:35:01;8.10;;;2.70;;
57303;SDS011;43150;50.986;18.208;2023-03-14T05:37:27;6.10;;;3.30;;
57303;SDS011;43150;50.986;18.208;2023-03-14T05:39:53;3.90;;;3.10;;
57303;SDS011;43150;50.986;18.208;2023-03-14T05:42:18;8.10;;;3.70;;
57303;SDS011;43150;50.986;18.208;2023-03-14T05:44:44;5.90;;;3.50;;
57303;SDS011;43150;50.986;18.208;2023-03-14T05:47:09;5.00;;;3.00;;
57303;SDS011;43150;50.986;18.208;2023-03-14T05:49:35;4.90;;;3.40;;
57303;SDS011;43150;50.986;18.208;2023-03-14T05:52:00;8.30;;;4.20;;
57303;SDS011;43150;50.986;18.208;2023-03-14T05:54:26;8.00;;;4.50;;
57303;SDS011;43150;50.986;18.208;2023-03-14T05:56:51;6.60;;;3.80;;
57303;SDS011;43150;50.986;18.208;2023-03-14T05:59:17;6.70;;;3.40;;
57303;SDS011;43150;50.986;18.208;2023-03-14T06:01:43;7.40;;;4.00;;
57303;SDS011;43150;50.986;18.208;2023-03-14T06:04:08;6.00;;;3.60;;
57303;SDS011;43150;50.986;18.208;2023-03-14T06:06:34;7.00;;;4.20;;
57303;SDS011;43150;50.986;18.208;2023-03-14T06:09:00;7.60;;;4.10;;
57303;SDS011;43150;50.986;18.208;2023-03-14T06:11:27;6.60;;;3.70;;
57303;SDS011;43150;50.986;18.208;2023-03-14T06:13:52;8.40;;;5.80;;
57303;SDS011;43150;50.986;18.208;2023-03-14T06:16:18;11.80;;;8.90;;
57303;SDS011;43150;50.986;18.208;2023-03-14T06:18:43;9.60;;;6.10;;
57303;SDS011;43150;50.986;18.208;2023-03-14T06:21:11;8.60;;;6.80;;
57303;SDS011;43150;50.986;18.208;2023-03-14T06:23:41;16.30;;;11.30;;
57303;SDS011;43150;50.986;18.208;2023-03-14T06:26:06;14.10;;;9.10;;
57303;SDS011;43150;50.986;18.208;2023-03-14T06:28:32;24.20;;;15.80;;
57303;SDS011;43150;50.986;18.208;2023-03-14T06:31:01;16.90;;;11.90;;
57303;SDS011;43150;50.986;18.208;2023-03-14T06:33:30;17.00;;;11.20;;
57303;SDS011;43150;50.986;18.208;2023-03-14T06:35:56;8.80;;;6.10;;
57303;SDS011;43150;50.986;18.208;2023-03-14T06:38:22;6.20;;;4.80;;
57303;SDS011;43150;50.986;18.208;2023-03-14T06:40:48;11.20;;;8.40;;
57303;SDS011;43150;50.986;18.208;2023-03-14T06:43:13;17.40;;;11.60;;
57303;SDS011;43150;50.986;18.208;2023-03-14T06:45:42;9.90;;;6.70;;
57303;SDS011;43150;50.986;18.208;2023-03-14T06:48:07;11.70;;;7.20;;
57303;SDS011;43150;50.986;18.208;2023-03-14T06:50:33;12.50;;;9.60;;
57303;SDS011;43150;50.986;18.208;2023-03-14T06:52:58;11.50;;;8.50;;
57303;SDS011;43150;50.986;18.208;2023-03-14T06:55:24;10.20;;;6.70;;
57303;SDS011;43150;50.986;18.208;2023-03-14T06:57:49;20.60;;;16.50;;
57303;SDS011;43150;50.986;18.208;2023-03-14T07:00:15;8.70;;;5.80;;
57303;SDS011;43150;50.986;18.208;2023-03-14T07:02:41;6.10;;;4.50;;
57303;SDS011;43150;50.986;18.208;2023-03-14T07:05:07;6.10;;;4.30;;
57303;SDS011;43150;50.986;18.208;2023-03-14T07:07:32;8.20;;;5.40;;
57303;SDS011;43150;50.986;18.208;2023-03-14T07:09:58;8.70;;;5.70;;
57303;SDS011;43150;50.986;18.208;2023-03-14T07:12:24;12.00;;;8.20;;
57303;SDS011;43150;50.986;18.208;2023-03-14T07:14:50;11.30;;;7.70;;
57303;SDS011;43150;50.986;18.208;2023-03-14T07:17:15;10.40;;;6.90;;
57303;SDS011;43150;50.986;18.208;2023-03-14T07:19:41;6.80;;;5.30;;
57303;SDS011;43150;50.986;18.208;2023-03-14T07:22:06;10.50;;;7.10;;
57303;SDS011;43150;50.986;18.208;2023-03-14T07:24:32;8.10;;;5.40;;
57303;SDS011;43150;50.986;18.208;2023-03-14T07:26:57;10.60;;;6.60;;
57303;SDS011;43150;50.986;18.208;2023-03-14T07:29:26;10.00;;;6.60;;
57303;SDS011;43150;50.986;18.208;2023-03-14T07:31:52;9.80;;;5.70;;
57303;SDS011;43150;50.986;18.208;2023-03-14T07:34:17;9.40;;;7.00;;
57303;SDS011;43150;50.986;18.208;2023-03-14T07:36:44;8.30;;;5.70;;
57303;SDS011;43150;50.986;18.208;2023-03-14T07:39:10;8.70;;;5.30;;
57303;SDS011;43150;50.986;18.208;2023-03-14T07:41:38;9.50;;;6.70;;
57303;SDS011;43150;50.986;18.208;2023-03-14T07:44:03;7.90;;;5.80;;
57303;SDS011;43150;50.986;18.208;2023-03-14T07:46:29;9.80;;;6.40;;
57303;SDS011;43150;50.986;18.208;2023-03-14T07:48:56;9.80;;;7.10;;
57303;SDS011;43150;50.986;18.208;2023-03-14T07:51:22;8.10;;;5.50;;
57303;SDS011;43150;50.986;18.208;2023-03-14T07:53:48;9.80;;;5.30;;
57303;SDS011;43150;50.986;18.208;2023-03-14T07:56:13;8.70;;;5.40;;
57303;SDS011;43150;50.986;18.208;2023-03-14T07:58:39;8.10;;;5.80;;
57303;SDS011;43150;50.986;18.208;2023-03-14T08:01:06;9.20;;;6.20;;
57303;SDS011;43150;50.986;18.208;2023-03-14T08:03:34;7.30;;;5.70;;
57303;SDS011;43150;50.986;18.208;2023-03-14T08:06:00;8.90;;;6.30;;
57303;SDS011;43150;50.986;18.208;2023-03-14T08:08:26;10.40;;;6.70;;
57303;SDS011;43150;50.986;18.208;2023-03-14T08:10:52;10.90;;;7.40;;
57303;SDS011;43150;50.986;18.208;2023-03-14T08:13:18;10.40;;;7.80;;
57303;SDS011;43150;50.986;18.208;2023-03-14T08:15:46;10.20;;;6.00;;
57303;SDS011;43150;50.986;18.208;2023-03-14T08:18:12;8.80;;;5.30;;
57303;SDS011;43150;50.986;18.208;2023-03-14T08:20:38;9.10;;;5.30;;
57303;SDS011;43150;50.986;18.208;2023-03-14T08:23:04;9.80;;;6.00;;
57303;SDS011;43150;50.986;18.208;2023-03-14T08:25:29;7.00;;;4.60;;
57303;SDS011;43150;50.986;18.208;2023-03-14T08:27:55;9.40;;;5.30;;
57303;SDS011;43150;50.986;18.208;2023-03-14T08:30:21;9.00;;;5.60;;
57303;SDS011;43150;50.986;18.208;2023-03-14T08:32:47;8.80;;;5.50;;
57303;SDS011;43150;50.986;18.208;2023-03-14T08:35:12;6.40;;;4.70;;
57303;SDS011;43150;50.986;18.208;2023-03-14T08:37:40;7.50;;;4.90;;
57303;SDS011;43150;50.986;18.208;2023-03-14T08:40:07;6.70;;;5.00;;
57303;SDS011;43150;50.986;18.208;2023-03-14T08:42:33;9.40;;;6.20;;
57303;SDS011;43150;50.986;18.208;2023-03-14T08:45:00;9.00;;;5.90;;
57303;SDS011;43150;50.986;18.208;2023-03-14T08:47:25;8.30;;;4.80;;
57303;SDS011;43150;50.986;18.208;2023-03-14T08:49:51;9.50;;;5.70;;
57303;SDS011;43150;50.986;18.208;2023-03-14T08:52:16;7.50;;;4.60;;
57303;SDS011;43150;50.986;18.208;2023-03-14T08:54:43;7.80;;;5.00;;
57303;SDS011;43150;50.986;18.208;2023-03-14T08:57:10;9.30;;;5.00;;
57303;SDS011;43150;50.986;18.208;2023-03-14T08:59:35;8.20;;;5.00;;
57303;SDS011;43150;50.986;18.208;2023-03-14T09:02:01;6.80;;;5.20;;
57303;SDS011;43150;50.986;18.208;2023-03-14T09:04:29;10.40;;;6.70;;
57303;SDS011;43150;50.986;18.208;2023-03-14T09:06:55;10.50;;;6.50;;
57303;SDS011;43150;50.986;18.208;2023-03-14T09:09:23;8.90;;;5.80;;
57303;SDS011;43150;50.986;18.208;2023-03-14T09:11:49;8.20;;;5.70;;
57303;SDS011;43150;50.986;18.208;2023-03-14T09:14:15;10.20;;;6.00;;
57303;SDS011;43150;50.986;18.208;2023-03-14T09:16:40;9.30;;;6.20;;
57303;SDS011;43150;50.986;18.208;2023-03-14T09:19:06;9.70;;;6.10;;
57303;SDS011;43150;50.986;18.208;2023-03-14T09:21:31;7.70;;;4.80;;
57303;SDS011;43150;50.986;18.208;2023-03-14T09:23:57;7.40;;;4.90;;
57303;SDS011;43150;50.986;18.208;2023-03-14T09:26:23;7.60;;;5.40;;
57303;SDS011;43150;50.986;18.208;2023-03-14T09:28:48;6.50;;;4.80;;
57303;SDS011;43150;50.986;18.208;2023-03-14T09:31:14;6.40;;;4.20;;
57303;SDS011;43150;50.986;18.208;2023-03-14T09:33:40;9.90;;;6.00;;
57303;SDS011;43150;50.986;18.208;2023-03-14T09:36:05;7.00;;;4.80;;
57303;SDS011;43150;50.986;18.208;2023-03-14T09:38:31;8.80;;;5.10;;
57303;SDS011;43150;50.986;18.208;2023-03-14T09:40:58;13.20;;;6.10;;
57303;SDS011;43150;50.986;18.208;2023-03-14T09:43:25;9.00;;;5.00;;
57303;SDS011;43150;50.986;18.208;2023-03-14T09:45:51;6.90;;;4.70;;
57303;SDS011;43150;50.986;18.208;2023-03-14T09:48:19;8.20;;;4.70;;
57303;SDS011;43150;50.986;18.208;2023-03-14T09:50:49;8.40;;;4.20;;
57303;SDS011;43150;50.986;18.208;2023-03-14T09:53:17;7.20;;;4.50;;
57303;SDS011;43150;50.986;18.208;2023-03-14T09:55:43;7.30;;;4.40;;
57303;SDS011;43150;50.986;18.208;2023-03-14T09:58:13;6.70;;;4.40;;
57303;SDS011;43150;50.986;18.208;2023-03-14T10:00:39;5.70;;;4.20;;
57303;SDS011;43150;50.986;18.208;2023-03-14T10:05:37;8.30;;;3.70;;
57303;SDS011;43150;50.986;18.208;2023-03-14T10:08:03;9.30;;;4.90;;
57303;SDS011;43150;50.986;18.208;2023-03-14T10:10:31;7.30;;;4.70;;
57303;SDS011;43150;50.986;18.208;2023-03-14T10:12:58;8.00;;;4.60;;
57303;SDS011;43150;50.986;18.208;2023-03-14T10:15:26;8.50;;;3.50;;
57303;SDS011;43150;50.986;18.208;2023-03-14T10:17:52;10.20;;;4.50;;
57303;SDS011;43150;50.986;18.208;2023-03-14T10:23:20;18.20;;;8.50;;
57303;SDS011;43150;50.986;18.208;2023-03-14T10:25:45;11.40;;;7.60;;
57303;SDS011;43150;50.986;18.208;2023-03-14T10:28:30;8.80;;;4.70;;
57303;SDS011;43150;50.986;18.208;2023-03-14T10:31:00;10.10;;;4.40;;
57303;SDS011;43150;50.986;18.208;2023-03-14T10:33:27;10.10;;;6.40;;
57303;SDS011;43150;50.986;18.208;2023-03-14T10:35:54;10.40;;;4.90;;
57303;SDS011;43150;50.986;18.208;2023-03-14T10:38:22;9.90;;;6.50;;
57303;SDS011;43150;50.986;18.208;2023-03-14T10:40:50;11.50;;;7.60;;
57303;SDS011;43150;50.986;18.208;2023-03-14T10:43:19;10.60;;;5.40;;
57303;SDS011;43150;50.986;18.208;2023-03-14T10:46:02;14.80;;;8.20;;
57303;SDS011;43150;50.986;18.208;2023-03-14T10:48:35;12.80;;;4.80;;
57303;SDS011;43150;50.986;18.208;2023-03-14T10:51:06;11.80;;;5.50;;
57303;SDS011;43150;50.986;18.208;2023-03-14T10:53:42;8.40;;;4.60;;
57303;SDS011;43150;50.986;18.208;2023-03-14T10:56:15;8.40;;;6.40;;
57303;SDS011;43150;50.986;18.208;2023-03-14T10:58:50;9.90;;;5.40;;
57303;SDS011;43150;50.986;18.208;2023-03-14T11:03:51;13.40;;;6.70;;
57303;SDS011;43150;50.986;18.208;2023-03-14T11:06:48;13.90;;;7.60;;
57303;SDS011;43150;50.986;18.208;2023-03-14T11:09:21;10.80;;;7.60;;
57303;SDS011;43150;50.986;18.208;2023-03-14T11:11:48;12.40;;;7.30;;
57303;SDS011;43150;50.986;18.208;2023-03-14T11:17:00;10.50;;;6.80;;
57303;SDS011;43150;50.986;18.208;2023-03-14T11:22:14;22.80;;;11.40;;
57303;SDS011;43150;50.986;18.208;2023-03-14T11:27:33;17.50;;;10.10;;
57303;SDS011;43150;50.986;18.208;2023-03-14T11:33:27;13.20;;;7.60;;
57303;SDS011;43150;50.986;18.208;2023-03-14T11:36:00;10.50;;;7.00;;
57303;SDS011;43150;50.986;18.208;2023-03-14T11:38:43;15.00;;;10.90;;
57303;SDS011;43150;50.986;18.208;2023-03-14T11:41:17;28.00;;;15.90;;
57303;SDS011;43150;50.986;18.208;2023-03-14T11:43:47;33.50;;;24.30;;
57303;SDS011;43150;50.986;18.208;2023-03-14T11:46:16;30.50;;;15.80;;
57303;SDS011;43150;50.986;18.208;2023-03-14T11:48:44;29.20;;;24.60;;
57303;SDS011;43150;50.986;18.208;2023-03-14T11:51:13;24.60;;;14.00;;
57303;SDS011;43150;50.986;18.208;2023-03-14T11:56:09;25.60;;;20.10;;
57303;SDS011;43150;50.986;18.208;2023-03-14T11:58:37;18.90;;;10.50;;
57303;SDS011;43150;50.986;18.208;2023-03-14T12:01:07;14.40;;;10.20;;
57303;SDS011;43150;50.986;18.208;2023-03-14T12:13:45;10.30;;;6.80;;
57303;SDS011;43150;50.986;18.208;2023-03-14T12:16:44;9.00;;;6.70;;
57303;SDS011;43150;50.986;18.208;2023-03-14T12:21:49;10.90;;;8.30;;
57303;SDS011;43150;50.986;18.208;2023-03-14T12:24:19;9.00;;;5.80;;
57303;SDS011;43150;50.986;18.208;2023-03-14T12:26:52;8.70;;;6.20;;
57303;SDS011;43150;50.986;18.208;2023-03-14T12:29:18;14.70;;;8.80;;
57303;SDS011;43150;50.986;18.208;2023-03-14T12:31:45;11.80;;;7.30;;
57303;SDS011;43150;50.986;18.208;2023-03-14T12:42:12;13.10;;;8.40;;
57303;SDS011;43150;50.986;18.208;2023-03-14T12:44:39;12.50;;;7.90;;
57303;SDS011;43150;50.986;18.208;2023-03-14T12:49:43;11.10;;;8.80;;
57303;SDS011;43150;50.986;18.208;2023-03-14T12:52:13;13.30;;;7.50;;
57303;SDS011;43150;50.986;18.208;2023-03-14T12:59:52;13.20;;;9.10;;
57303;SDS011;43150;50.986;18.208;2023-03-14T13:02:38;10.80;;;7.10;;
57303;SDS011;43150;50.986;18.208;2023-03-14T13:05:23;13.10;;;8.30;;
57303;SDS011;43150;50.986;18.208;2023-03-14T13:10:25;14.10;;;10.70;;
57303;SDS011;43150;50.986;18.208;2023-03-14T13:12:52;19.60;;;12.50;;
57303;SDS011;43150;50.986;18.208;2023-03-14T13:17:47;33.40;;;19.30;;
57303;SDS011;43150;50.986;18.208;2023-03-14T13:20:18;28.50;;;17.80;;
57303;SDS011;43150;50.986;18.208;2023-03-14T13:22:47;18.70;;;10.50;;
57303;SDS011;43150;50.986;18.208;2023-03-14T13:25:15;17.70;;;10.60;;
57303;SDS011;43150;50.986;18.208;2023-03-14T13:27:52;17.70;;;15.20;;
57303;SDS011;43150;50.986;18.208;2023-03-14T13:30:22;14.90;;;12.90;;
57303;SDS011;43150;50.986;18.208;2023-03-14T13:32:48;15.10;;;13.30;;
57303;SDS011;43150;50.986;18.208;2023-03-14T13:35:15;13.30;;;11.20;;
57303;SDS011;43150;50.986;18.208;2023-03-14T13:37:45;11.90;;;10.30;;
57303;SDS011;43150;50.986;18.208;2023-03-14T13:40:19;11.50;;;10.00;;
57303;SDS011;43150;50.986;18.208;2023-03-14T13:42:45;11.40;;;9.70;;
57303;SDS011;43150;50.986;18.208;2023-03-14T13:45:15;13.80;;;11.70;;
57303;SDS011;43150;50.986;18.208;2023-03-14T13:47:41;13.00;;;10.80;;
57303;SDS011;43150;50.986;18.208;2023-03-14T13:50:13;10.60;;;8.80;;
57303;SDS011;43150;50.986;18.208;2023-03-14T13:52:39;13.50;;;12.10;;
57303;SDS011;43150;50.986;18.208;2023-03-14T13:55:05;14.20;;;11.40;;
57303;SDS011;43150;50.986;18.208;2023-03-14T13:57:44;11.80;;;10.60;;
57303;SDS011;43150;50.986;18.208;2023-03-14T14:00:27;17.60;;;15.80;;
57303;SDS011;43150;50.986;18.208;2023-03-14T14:02:53;13.20;;;11.50;;
57303;SDS011;43150;50.986;18.208;2023-03-14T14:05:20;13.40;;;11.20;;
57303;SDS011;43150;50.986;18.208;2023-03-14T14:07:46;15.00;;;12.60;;
57303;SDS011;43150;50.986;18.208;2023-03-14T14:10:12;19.60;;;16.90;;
57303;SDS011;43150;50.986;18.208;2023-03-14T14:12:40;14.70;;;11.90;;
57303;SDS011;43150;50.986;18.208;2023-03-14T14:15:10;20.60;;;16.30;;
57303;SDS011;43150;50.986;18.208;2023-03-14T14:20:42;13.00;;;10.90;;
57303;SDS011;43150;50.986;18.208;2023-03-14T14:23:12;13.70;;;12.10;;
57303;SDS011;43150;50.986;18.208;2023-03-14T14:25:44;11.50;;;10.30;;
57303;SDS011;43150;50.986;18.208;2023-03-14T14:28:27;14.30;;;11.70;;
57303;SDS011;43150;50.986;18.208;2023-03-14T14:33:19;13.80;;;9.70;;
57303;SDS011;43150;50.986;18.208;2023-03-14T14:35:56;12.90;;;10.20;;
57303;SDS011;43150;50.986;18.208;2023-03-14T14:38:22;10.60;;;9.40;;
57303;SDS011;43150;50.986;18.208;2023-03-14T14:40:49;13.90;;;10.70;;
57303;SDS011;43150;50.986;18.208;2023-03-14T14:43:17;12.70;;;8.30;;
57303;SDS011;43150;50.986;18.208;2023-03-14T14:45:43;12.50;;;10.50;;
57303;SDS011;43150;50.986;18.208;2023-03-14T14:48:11;15.30;;;13.70;;
57303;SDS011;43150;50.986;18.208;2023-03-14T14:50:38;21.10;;;19.10;;
57303;SDS011;43150;50.986;18.208;2023-03-14T14:55:50;22.00;;;19.80;;
57303;SDS011;43150;50.986;18.208;2023-03-14T15:00:49;20.80;;;17.20;;
57303;SDS011;43150;50.986;18.208;2023-03-14T15:03:15;12.70;;;11.40;;
57303;SDS011;43150;50.986;18.208;2023-03-14T15:05:41;15.20;;;13.40;;
57303;SDS011;43150;50.986;18.208;2023-03-14T15:08:10;22.20;;;19.90;;
57303;SDS011;43150;50.986;18.208;2023-03-14T15:10:36;23.80;;;21.30;;
57303;SDS011;43150;50.986;18.208;2023-03-14T15:13:02;21.40;;;18.30;;
57303;SDS011;43150;50.986;18.208;2023-03-14T15:15:27;22.40;;;17.90;;
57303;SDS011;43150;50.986;18.208;2023-03-14T15:17:53;16.60;;;14.10;;
57303;SDS011;43150;50.986;18.208;2023-03-14T15:20:19;15.40;;;13.70;;
57303;SDS011;43150;50.986;18.208;2023-03-14T15:22:46;17.80;;;15.00;;
57303;SDS011;43150;50.986;18.208;2023-03-14T15:25:12;24.50;;;20.20;;
57303;SDS011;43150;50.986;18.208;2023-03-14T15:27:38;18.50;;;15.50;;
57303;SDS011;43150;50.986;18.208;2023-03-14T15:30:17;18.50;;;15.60;;
57303;SDS011;43150;50.986;18.208;2023-03-14T15:32:42;17.40;;;14.40;;
57303;SDS011;43150;50.986;18.208;2023-03-14T15:35:08;24.90;;;21.60;;
57303;SDS011;43150;50.986;18.208;2023-03-14T15:37:34;30.80;;;25.60;;
57303;SDS011;43150;50.986;18.208;2023-03-14T15:40:00;25.40;;;21.70;;
57303;SDS011;43150;50.986;18.208;2023-03-14T15:42:28;24.80;;;21.20;;